Terminal Aerodrome Forecast
Issued by NWS Memphis, TN

Home | Current Version | Previous Version | Text Only | Print | Product List | Glossary On
Versions: 1 2 3 4 5 6 7 8 9 10 11 12 13 14 15 16 17 18 19 20
746
FTUS44 KMEG 241130
TAFMKL
TAF
KMKL 241130Z 2412/2512 34004KT P6SM BKN120
     FM241400 35010KT P6SM SCT120 BKN250
     FM250100 35003KT P6SM SCT150
     FM250600 00000KT P6SM BKN250=

USA.gov is the U.S. government's official web portal to all federal, state and local government web resources and services.